createdAt,value
2022-08-04T00:03:19.491Z,22.70
2022-08-04T00:08:34.763Z,22.70
2022-08-04T00:13:57.925Z,22.70
2022-08-04T00:19:11.680Z,22.70
2022-08-04T00:24:17.106Z,22.70
2022-08-04T00:29:22.838Z,22.70
2022-08-04T00:34:27.930Z,22.80
2022-08-04T00:39:32.922Z,22.80
2022-08-04T00:44:49.943Z,22.80
2022-08-04T00:50:06.938Z,22.80
2022-08-04T00:55:28.975Z,22.90
2022-08-04T01:00:45.123Z,22.90
2022-08-04T01:05:58.752Z,22.90
2022-08-04T01:11:12.658Z,22.80
2022-08-04T01:16:19.143Z,22.80
2022-08-04T01:21:59.214Z,22.80
2022-08-04T01:27:07.194Z,22.70
2022-08-04T01:32:25.376Z,22.70
2022-08-04T01:37:46.570Z,22.60
2022-08-04T01:42:54.257Z,22.50
2022-08-04T01:47:59.290Z,22.40
2022-08-04T01:53:04.901Z,22.50
2022-08-04T01:58:09.349Z,22.50
2022-08-04T02:03:14.303Z,22.50
2022-08-04T02:08:32.074Z,22.50
2022-08-04T02:13:44.413Z,22.40
2022-08-04T02:18:59.009Z,22.40
2022-08-04T02:24:07.210Z,22.30
2022-08-04T02:29:22.341Z,22.30
2022-08-04T02:34:31.981Z,22.30
2022-08-04T02:39:48.588Z,22.20
2022-08-04T02:44:53.249Z,22.20
2022-08-04T02:49:59.459Z,22.20
2022-08-04T02:55:04.131Z,22.10
2022-08-04T03:00:10.986Z,22.00
2022-08-04T03:05:19.915Z,22.00
2022-08-04T03:11:02.025Z,21.90
2022-08-04T03:16:30.292Z,21.90
2022-08-04T03:22:26.036Z,21.90
2022-08-04T03:27:46.699Z,21.90
2022-08-04T03:33:25.490Z,21.90
2022-08-04T03:39:04.011Z,21.70
2022-08-04T03:44:43.483Z,21.70
2022-08-04T03:50:26.606Z,21.70
2022-08-04T03:56:18.342Z,21.70
2022-08-04T04:02:02.718Z,21.70
2022-08-04T04:07:38.159Z,21.60
2022-08-04T04:13:06.893Z,21.60
2022-08-04T04:18:23.143Z,21.50
2022-08-04T04:23:37.032Z,21.50
2022-08-04T04:28:51.827Z,21.50
2022-08-04T04:34:07.320Z,21.50
2022-08-04T04:39:21.518Z,21.40
2022-08-04T04:45:13.649Z,21.40
2022-08-04T04:50:28.648Z,21.40
2022-08-04T04:55:48.131Z,21.40
2022-08-04T05:01:14.937Z,21.40
2022-08-04T05:06:40.075Z,21.30
2022-08-04T05:14:32.460Z,21.40
2022-08-04T05:17:56.571Z,21.40
2022-08-04T05:23:04.758Z,21.40
2022-08-04T05:28:13.501Z,21.30
2022-08-04T05:33:22.459Z,21.30
2022-08-04T05:38:35.168Z,21.20
2022-08-04T05:43:41.671Z,21.20
2022-08-04T05:48:47.839Z,21.20
2022-08-04T05:53:55.250Z,21.20
2022-08-04T05:58:59.751Z,21.30
2022-08-04T06:04:08.062Z,21.30
2022-08-04T06:09:16.671Z,21.30
2022-08-04T06:14:24.991Z,21.30
2022-08-04T06:20:01.808Z,21.40
2022-08-04T06:24:57.575Z,21.40
2022-08-04T06:30:07.065Z,21.50
2022-08-04T06:35:12.103Z,21.60
2022-08-04T06:40:31.992Z,21.80
2022-08-04T06:45:41.318Z,21.90
2022-08-04T06:51:25.678Z,21.90
2022-08-04T06:56:16.221Z,22.00
2022-08-04T07:01:22.050Z,22.00
2022-08-04T07:06:26.138Z,22.10
2022-08-04T07:11:39.462Z,22.20
2022-08-04T07:16:50.879Z,22.30
2022-08-04T07:22:18.787Z,22.50
2022-08-04T07:27:47.731Z,22.60
2022-08-04T07:32:46.197Z,22.70
2022-08-04T07:37:50.126Z,22.70
2022-08-04T07:42:55.535Z,22.70
2022-08-04T07:48:05.022Z,22.80
2022-08-04T07:53:55.011Z,23.00
2022-08-04T07:58:36.361Z,23.20
2022-08-04T08:03:41.979Z,23.50
2022-08-04T08:08:45.879Z,23.60
2022-08-04T08:13:51.270Z,23.60
2022-08-04T08:18:55.942Z,23.60
2022-08-04T08:23:59.850Z,23.70
2022-08-04T08:29:05.815Z,23.80
2022-08-04T08:34:11.430Z,23.90
2022-08-04T08:39:24.727Z,24.10
2022-08-04T08:45:17.808Z,24.30
2022-08-04T08:50:59.108Z,24.60
2022-08-04T08:56:14.999Z,24.90
2022-08-04T09:01:35.826Z,25.30
2022-08-04T09:06:52.021Z,25.80
2022-08-04T09:12:07.050Z,26.50
2022-08-04T09:17:23.796Z,27.00
2022-08-04T09:22:35.344Z,27.60
2022-08-04T09:27:47.307Z,28.10
2022-08-04T09:33:01.485Z,28.70
2022-08-04T09:38:12.197Z,29.50
2022-08-04T09:43:28.079Z,29.60
2022-08-04T09:49:00.039Z,29.80
2022-08-04T09:54:10.734Z,30.20
2022-08-04T09:59:42.428Z,30.50
2022-08-04T10:04:50.507Z,30.90
2022-08-04T10:10:04.891Z,30.90
2022-08-04T10:15:15.101Z,31.00
2022-08-04T10:20:34.006Z,31.00
2022-08-04T10:26:05.202Z,31.10
2022-08-04T10:31:17.053Z,31.40
2022-08-04T10:36:25.123Z,31.60
2022-08-04T10:41:36.048Z,32.00
2022-08-04T10:46:46.902Z,32.10
2022-08-04T10:51:58.715Z,32.40
2022-08-04T10:57:08.658Z,32.60
2022-08-04T11:02:27.199Z,33.00
2022-08-04T11:07:35.882Z,33.10
2022-08-04T11:12:41.770Z,32.70
2022-08-04T11:17:51.563Z,32.60
2022-08-04T11:23:04.986Z,32.70
2022-08-04T11:28:15.386Z,32.70
2022-08-04T11:33:28.478Z,32.80
2022-08-04T11:38:41.452Z,32.90
2022-08-04T11:44:02.467Z,32.90
2022-08-04T11:49:13.048Z,32.60
2022-08-04T11:54:20.274Z,32.80
2022-08-04T11:59:25.893Z,32.60
2022-08-04T12:04:43.249Z,32.60
2022-08-04T12:09:57.658Z,32.80
2022-08-04T12:15:12.693Z,32.80
2022-08-04T12:20:38.535Z,33.10
2022-08-04T12:25:49.942Z,33.20
2022-08-04T12:31:04.225Z,32.90
2022-08-04T12:36:21.342Z,33.10
2022-08-04T12:41:35.604Z,33.40
2022-08-04T12:46:41.220Z,33.50
2022-08-04T12:52:06.312Z,33.60
2022-08-04T12:57:14.424Z,33.80
2022-08-04T13:02:24.077Z,34.30
2022-08-04T13:07:37.031Z,34.30
2022-08-04T13:12:57.301Z,34.40
2022-08-04T13:18:05.267Z,34.40
2022-08-04T13:23:21.991Z,34.60
2022-08-04T13:28:28.864Z,34.60
2022-08-04T13:33:35.699Z,34.40
2022-08-04T13:38:46.403Z,34.30
2022-08-04T13:44:17.893Z,34.50
2022-08-04T13:49:37.647Z,34.20
2022-08-04T13:54:47.063Z,33.70
2022-08-04T13:59:55.864Z,33.10
2022-08-04T14:05:05.793Z,32.40
2022-08-04T14:10:23.684Z,31.70
2022-08-04T14:16:01.486Z,31.30
2022-08-04T14:21:08.365Z,31.00
2022-08-04T14:26:20.124Z,30.70
2022-08-04T14:31:30.830Z,30.30
2022-08-04T14:37:16.181Z,30.20
2022-08-04T14:42:06.438Z,30.30
2022-08-04T14:47:13.310Z,30.10
2022-08-04T14:52:25.066Z,29.80
2022-08-04T14:57:28.956Z,29.60
2022-08-04T15:02:36.134Z,29.50
2022-08-04T15:07:40.124Z,29.30
2022-08-04T15:12:44.399Z,29.10
2022-08-04T15:17:50.046Z,29.00
2022-08-04T15:22:53.853Z,28.90
2022-08-04T15:27:58.570Z,28.90
2022-08-04T15:33:04.402Z,28.90
2022-08-04T15:38:14.738Z,28.70
2022-08-04T15:43:33.572Z,28.60
2022-08-04T15:48:40.798Z,28.40
2022-08-04T15:54:30.633Z,28.10
2022-08-04T16:00:00.312Z,28.00
2022-08-04T16:05:35.653Z,27.80
2022-08-04T16:10:41.246Z,27.80
2022-08-04T16:15:50.629Z,27.60
2022-08-04T16:20:58.201Z,27.50
2022-08-04T16:26:02.061Z,27.30
2022-08-04T16:31:06.948Z,27.10
2022-08-04T16:36:16.723Z,26.90
2022-08-04T16:41:40.458Z,26.80
2022-08-04T16:47:22.082Z,26.70
2022-08-04T16:52:13.751Z,26.50
2022-08-04T16:57:17.606Z,26.30
2022-08-04T17:02:26.290Z,26.10
2022-08-04T17:08:28.218Z,25.90
2022-08-04T17:14:03.101Z,25.70
2022-08-04T17:18:51.283Z,25.60
2022-08-04T17:24:15.061Z,25.40
2022-08-04T17:29:21.682Z,25.30
2022-08-04T17:34:26.494Z,25.10
2022-08-04T17:39:35.041Z,25.10
2022-08-04T17:44:43.488Z,25.00
2022-08-04T17:49:53.069Z,24.90
2022-08-04T17:55:02.976Z,24.80
2022-08-04T18:00:08.286Z,24.80
2022-08-04T18:05:50.195Z,24.70
2022-08-04T18:10:56.985Z,24.50
2022-08-04T18:16:05.136Z,24.40
2022-08-04T18:21:08.952Z,24.20
2022-08-04T18:26:15.245Z,24.10
2022-08-04T18:31:18.926Z,24.00
2022-08-04T18:36:36.973Z,23.90
2022-08-04T18:42:02.376Z,24.00
2022-08-04T18:47:22.400Z,24.00
2022-08-04T18:52:27.059Z,23.90
2022-08-04T18:58:00.702Z,23.90
2022-08-04T19:02:57.795Z,23.80
2022-08-04T19:08:33.530Z,23.80
2022-08-04T19:13:27.097Z,23.70
2022-08-04T19:18:36.445Z,23.50
2022-08-04T19:24:30.585Z,23.50
2022-08-04T19:29:08.555Z,23.40
2022-08-04T19:34:12.402Z,23.30
2022-08-04T19:39:16.211Z,23.20
2022-08-04T19:44:21.461Z,23.00
2022-08-04T19:50:03.785Z,23.00
2022-08-04T19:54:51.043Z,22.90
2022-08-04T19:59:56.042Z,22.80
2022-08-04T20:04:59.657Z,22.70
2022-08-04T20:10:04.287Z,22.60
2022-08-04T20:20:34.262Z,22.40
2022-08-04T20:25:38.922Z,22.30
2022-08-04T20:30:47.934Z,22.10
2022-08-04T20:36:05.043Z,22.00
2022-08-04T20:41:10.326Z,22.00
2022-08-04T20:46:29.274Z,22.00
2022-08-04T20:51:39.902Z,21.90
2022-08-04T20:56:50.605Z,21.80
2022-08-04T21:01:56.788Z,21.80
2022-08-04T21:07:05.623Z,21.70
2022-08-04T21:12:10.186Z,21.70
2022-08-04T21:17:17.014Z,21.60
2022-08-04T21:22:33.120Z,21.60
2022-08-04T21:27:39.500Z,21.50
2022-08-04T21:32:44.697Z,21.40
2022-08-04T21:37:56.489Z,21.30
2022-08-04T21:43:01.106Z,21.20
2022-08-04T21:48:08.208Z,21.20
2022-08-04T21:53:12.990Z,21.10
2022-08-04T21:58:16.812Z,21.00
2022-08-04T22:03:52.593Z,21.00
2022-08-04T22:08:49.150Z,20.90
2022-08-04T22:14:10.954Z,20.80
2022-08-04T22:19:16.814Z,20.70
2022-08-04T22:24:27.684Z,20.70
2022-08-04T22:29:33.638Z,20.70
2022-08-04T22:34:45.379Z,20.60
2022-08-04T22:39:56.510Z,20.60
2022-08-04T22:45:00.872Z,20.50
2022-08-04T22:50:26.832Z,20.50
2022-08-04T22:55:57.431Z,20.30
2022-08-04T23:00:58.233Z,20.30
2022-08-04T23:06:06.404Z,20.20
2022-08-04T23:11:11.328Z,20.10
2022-08-04T23:16:15.353Z,20.10
2022-08-04T23:21:24.241Z,20.10
2022-08-04T23:26:28.589Z,20.10
2022-08-04T23:31:41.123Z,20.10
2022-08-04T23:36:59.299Z,20.10
2022-08-04T23:42:03.155Z,20.00
2022-08-04T23:47:07.763Z,19.90
2022-08-04T23:52:23.305Z,19.80
2022-08-04T23:58:05.257Z,19.80
